createdAt,value
2022-10-22T16:11:56.955Z,22.60
2022-10-22T16:14:25.321Z,22.60
2022-10-22T16:16:55.648Z,22.60
2022-10-22T16:19:25.433Z,22.70
2022-10-22T16:21:55.466Z,22.70
2022-10-22T16:24:24.107Z,22.70
2022-10-22T16:26:53.334Z,22.80
2022-10-22T16:29:22.844Z,22.80
2022-10-22T16:31:50.959Z,22.90
2022-10-22T16:34:19.186Z,23.00
2022-10-22T16:36:48.870Z,23.00
2022-10-22T16:39:17.144Z,23.00
2022-10-22T16:41:45.338Z,23.10
2022-10-22T16:44:13.473Z,23.10
2022-10-22T16:46:43.309Z,23.10
2022-10-22T16:49:11.820Z,23.20
2022-10-22T16:51:40.765Z,23.20
2022-10-22T16:54:11.451Z,23.20
2022-10-22T16:56:41.220Z,23.30
2022-10-22T16:59:09.487Z,23.30
2022-10-22T17:01:40.997Z,23.30
2022-10-22T17:04:11.049Z,23.30
2022-10-22T17:06:39.328Z,23.30
2022-10-22T17:09:07.507Z,23.30
2022-10-22T17:11:37.213Z,23.30
2022-10-22T17:14:07.468Z,23.30
2022-10-22T17:16:35.734Z,23.30
2022-10-22T17:19:05.381Z,23.20
2022-10-22T17:21:35.392Z,23.20
2022-10-22T17:24:03.525Z,23.20
2022-10-22T17:26:33.320Z,23.20
2022-10-22T17:29:01.845Z,23.20
2022-10-22T17:31:32.620Z,23.20
2022-10-22T17:34:01.127Z,23.10
2022-10-22T17:36:33.329Z,23.10
2022-10-22T17:39:07.243Z,23.10
2022-10-22T17:41:37.609Z,23.10
2022-10-22T17:44:09.104Z,23.10
2022-10-22T17:46:38.480Z,23.10
2022-10-22T17:49:11.592Z,23.10
2022-10-22T17:51:39.888Z,23.10
2022-10-22T17:54:10.322Z,23.10
2022-10-22T17:56:40.165Z,23.10
2022-10-22T17:59:08.551Z,23.10
2022-10-22T18:01:43.376Z,23.10
2022-10-22T18:04:14.358Z,23.10
2022-10-22T18:06:42.527Z,23.10
2022-10-22T18:09:18.180Z,23.10
2022-10-22T18:11:47.685Z,23.10
2022-10-22T18:14:15.974Z,23.10
2022-10-22T18:16:44.028Z,23.10
2022-10-22T18:19:15.386Z,23.10
2022-10-22T18:21:43.512Z,23.10
2022-10-22T18:24:14.588Z,23.10
2022-10-22T18:26:44.862Z,23.10
2022-10-22T18:29:15.864Z,23.10
2022-10-22T18:31:44.027Z,23.10
2022-10-22T18:34:12.325Z,23.10
2022-10-22T18:36:41.996Z,23.10
2022-10-22T18:39:14.361Z,23.10
2022-10-22T18:41:43.417Z,23.10
2022-10-22T18:44:14.209Z,23.10
2022-10-22T18:46:42.285Z,23.10
2022-10-22T18:49:14.071Z,23.10
2022-10-22T18:51:42.097Z,23.10
2022-10-22T18:54:22.588Z,23.10
2022-10-22T18:56:53.567Z,23.00
2022-10-22T18:59:23.484Z,23.10
2022-10-22T19:01:53.695Z,23.10
2022-10-22T19:04:21.807Z,23.10
2022-10-22T19:06:49.851Z,23.10
2022-10-22T19:09:18.406Z,23.10
2022-10-22T19:11:47.097Z,23.10
2022-10-22T19:14:19.413Z,23.10
2022-10-22T19:16:48.237Z,23.10
2022-10-22T19:19:19.006Z,23.10
